sensor_id;sensor_type;location;lat;lon;timestamp;temperature;humidity
12233;DHT22;6179;51.748;8.728;2023-02-28T00:00:04;1.20;88.70
12233;DHT22;6179;51.748;8.728;2023-02-28T00:06:10;1.20;88.00
12233;DHT22;6179;51.748;8.728;2023-02-28T00:12:11;1.00;88.80
12233;DHT22;6179;51.748;8.728;2023-02-28T00:18:12;1.00;88.90
12233;DHT22;6179;51.748;8.728;2023-02-28T00:24:13;0.90;89.30
12233;DHT22;6179;51.748;8.728;2023-02-28T00:30:18;0.90;88.50
12233;DHT22;6179;51.748;8.728;2023-02-28T00:36:20;1.00;88.20
12233;DHT22;6179;51.748;8.728;2023-02-28T00:42:20;1.00;87.00
12233;DHT22;6179;51.748;8.728;2023-02-28T00:48:22;1.20;86.40
12233;DHT22;6179;51.748;8.728;2023-02-28T00:54:23;1.20;85.80
12233;DHT22;6179;51.748;8.728;2023-02-28T01:00:24;0.90;86.80
12233;DHT22;6179;51.748;8.728;2023-02-28T01:06:25;1.00;87.10
12233;DHT22;6179;51.748;8.728;2023-02-28T01:12:26;0.90;87.80
12233;DHT22;6179;51.748;8.728;2023-02-28T01:18:27;0.50;88.70
12233;DHT22;6179;51.748;8.728;2023-02-28T01:24:28;0.60;88.50
12233;DHT22;6179;51.748;8.728;2023-02-28T01:30:30;0.60;88.80
12233;DHT22;6179;51.748;8.728;2023-02-28T01:36:31;0.50;89.30
12233;DHT22;6179;51.748;8.728;2023-02-28T01:42:31;0.20;90.10
12233;DHT22;6179;51.748;8.728;2023-02-28T01:48:35;0.10;91.40
12233;DHT22;6179;51.748;8.728;2023-02-28T01:54:38;-0.30;92.10
12233;DHT22;6179;51.748;8.728;2023-02-28T02:00:39;-0.50;93.70
12233;DHT22;6179;51.748;8.728;2023-02-28T02:06:45;-0.90;93.80
12233;DHT22;6179;51.748;8.728;2023-02-28T02:40:14;-1.30;95.70
12233;DHT22;6179;51.748;8.728;2023-02-28T02:46:24;-1.20;94.90
12233;DHT22;6179;51.748;8.728;2023-02-28T02:52:35;-1.40;95.80
12233;DHT22;6179;51.748;8.728;2023-02-28T02:58:42;-1.40;96.10
12233;DHT22;6179;51.748;8.728;2023-02-28T03:04:51;-1.20;95.40
12233;DHT22;6179;51.748;8.728;2023-02-28T03:11:00;-1.00;94.90
12233;DHT22;6179;51.748;8.728;2023-02-28T03:17:11;-1.30;95.20
12233;DHT22;6179;51.748;8.728;2023-02-28T03:23:20;-0.90;94.10
12233;DHT22;6179;51.748;8.728;2023-02-28T03:29:31;-1.10;94.20
12233;DHT22;6179;51.748;8.728;2023-02-28T03:35:55;-1.10;94.60
12233;DHT22;6179;51.748;8.728;2023-02-28T03:42:08;-1.20;94.30
12233;DHT22;6179;51.748;8.728;2023-02-28T03:48:28;-1.40;95.30
12233;DHT22;6179;51.748;8.728;2023-02-28T03:54:46;-1.80;95.40
12233;DHT22;6179;51.748;8.728;2023-02-28T04:01:07;-1.70;96.30
12233;DHT22;6179;51.748;8.728;2023-02-28T04:07:11;-1.70;95.80
12233;DHT22;6179;51.748;8.728;2023-02-28T04:13:12;-1.70;95.50
12233;DHT22;6179;51.748;8.728;2023-02-28T04:19:14;-1.40;94.20
12233;DHT22;6179;51.748;8.728;2023-02-28T04:25:15;-1.50;94.80
12233;DHT22;6179;51.748;8.728;2023-02-28T04:31:16;-1.00;93.50
12233;DHT22;6179;51.748;8.728;2023-02-28T04:37:17;-1.20;94.10
12233;DHT22;6179;51.748;8.728;2023-02-28T04:43:17;-1.50;94.40
12233;DHT22;6179;51.748;8.728;2023-02-28T04:49:18;-1.80;94.60
12233;DHT22;6179;51.748;8.728;2023-02-28T04:55:19;-1.80;95.20
12233;DHT22;6179;51.748;8.728;2023-02-28T05:01:32;-1.80;95.70
12233;DHT22;6179;51.748;8.728;2023-02-28T05:07:34;-1.80;96.10
12233;DHT22;6179;51.748;8.728;2023-02-28T05:13:34;-1.40;95.40
12233;DHT22;6179;51.748;8.728;2023-02-28T05:19:36;-1.30;94.90
12233;DHT22;6179;51.748;8.728;2023-02-28T05:25:36;-1.70;94.70
12233;DHT22;6179;51.748;8.728;2023-02-28T05:31:38;-1.60;95.40
12233;DHT22;6179;51.748;8.728;2023-02-28T05:37:39;-1.40;95.20
12233;DHT22;6179;51.748;8.728;2023-02-28T05:43:40;-1.50;95.10
12233;DHT22;6179;51.748;8.728;2023-02-28T05:49:41;-1.70;96.10
12233;DHT22;6179;51.748;8.728;2023-02-28T05:55:42;-1.70;96.30
12233;DHT22;6179;51.748;8.728;2023-02-28T06:01:45;-1.60;95.50
12233;DHT22;6179;51.748;8.728;2023-02-28T06:07:48;-1.40;93.80
12233;DHT22;6179;51.748;8.728;2023-02-28T06:13:49;-1.70;93.50
12233;DHT22;6179;51.748;8.728;2023-02-28T06:19:50;-1.80;94.40
12233;DHT22;6179;51.748;8.728;2023-02-28T06:25:50;-2.00;94.30
12233;DHT22;6179;51.748;8.728;2023-02-28T06:31:53;-2.20;94.50
12233;DHT22;6179;51.748;8.728;2023-02-28T06:37:54;-2.20;95.00
12233;DHT22;6179;51.748;8.728;2023-02-28T06:43:55;-1.60;92.90
12233;DHT22;6179;51.748;8.728;2023-02-28T06:49:58;-1.70;93.30
12233;DHT22;6179;51.748;8.728;2023-02-28T06:56:07;-1.50;92.80
12233;DHT22;6179;51.748;8.728;2023-02-28T07:02:15;-1.40;91.20
12233;DHT22;6179;51.748;8.728;2023-02-28T07:08:16;-1.30;91.70
12233;DHT22;6179;51.748;8.728;2023-02-28T07:14:17;-1.40;92.40
12233;DHT22;6179;51.748;8.728;2023-02-28T07:20:19;-1.30;92.30
12233;DHT22;6179;51.748;8.728;2023-02-28T07:26:20;-1.30;93.10
12233;DHT22;6179;51.748;8.728;2023-02-28T07:32:21;-1.40;94.30
12233;DHT22;6179;51.748;8.728;2023-02-28T07:38:22;-1.30;94.70
12233;DHT22;6179;51.748;8.728;2023-02-28T07:44:23;-1.10;94.80
12233;DHT22;6179;51.748;8.728;2023-02-28T07:50:24;-0.70;94.40
12233;DHT22;6179;51.748;8.728;2023-02-28T07:56:25;-0.40;92.30
12233;DHT22;6179;51.748;8.728;2023-02-28T08:02:26;-0.20;92.20
12233;DHT22;6179;51.748;8.728;2023-02-28T08:08:26;0.10;90.40
12233;DHT22;6179;51.748;8.728;2023-02-28T08:14:31;0.50;89.00
12233;DHT22;6179;51.748;8.728;2023-02-28T08:20:32;0.70;88.70
12233;DHT22;6179;51.748;8.728;2023-02-28T08:26:33;1.10;86.80
12233;DHT22;6179;51.748;8.728;2023-02-28T08:32:34;1.30;86.20
12233;DHT22;6179;51.748;8.728;2023-02-28T08:38:35;1.70;86.00
12233;DHT22;6179;51.748;8.728;2023-02-28T08:44:37;2.20;83.00
12233;DHT22;6179;51.748;8.728;2023-02-28T08:50:38;2.30;82.10
12233;DHT22;6179;51.748;8.728;2023-02-28T08:56:39;2.60;79.60
12233;DHT22;6179;51.748;8.728;2023-02-28T09:02:40;2.80;78.30
12233;DHT22;6179;51.748;8.728;2023-02-28T09:08:43;2.80;76.90
12233;DHT22;6179;51.748;8.728;2023-02-28T09:14:44;3.40;75.70
12233;DHT22;6179;51.748;8.728;2023-02-28T09:20:45;3.30;77.00
12233;DHT22;6179;51.748;8.728;2023-02-28T09:26:46;3.60;74.80
12233;DHT22;6179;51.748;8.728;2023-02-28T09:32:47;3.40;74.50
12233;DHT22;6179;51.748;8.728;2023-02-28T09:38:52;3.10;77.20
12233;DHT22;6179;51.748;8.728;2023-02-28T09:44:53;3.50;75.80
12233;DHT22;6179;51.748;8.728;2023-02-28T09:57:38;4.00;74.80
12233;DHT22;6179;51.748;8.728;2023-02-28T10:10:33;4.10;75.70
12233;DHT22;6179;51.748;8.728;2023-02-28T10:16:58;4.20;73.90
12233;DHT22;6179;51.748;8.728;2023-02-28T10:29:32;4.20;76.10
12233;DHT22;6179;51.748;8.728;2023-02-28T10:35:34;4.10;77.10
12233;DHT22;6179;51.748;8.728;2023-02-28T10:41:42;4.30;75.60
12233;DHT22;6179;51.748;8.728;2023-02-28T10:47:53;4.10;76.00
12233;DHT22;6179;51.748;8.728;2023-02-28T10:53:56;4.00;75.20
12233;DHT22;6179;51.748;8.728;2023-02-28T11:06:22;4.20;75.90
12233;DHT22;6179;51.748;8.728;2023-02-28T11:12:33;4.10;74.70
12233;DHT22;6179;51.748;8.728;2023-02-28T11:18:48;3.70;75.90
12233;DHT22;6179;51.748;8.728;2023-02-28T11:24:54;3.70;76.10
12233;DHT22;6179;51.748;8.728;2023-02-28T11:31:05;4.00;75.60
12233;DHT22;6179;51.748;8.728;2023-02-28T11:37:15;4.60;71.20
12233;DHT22;6179;51.748;8.728;2023-02-28T11:50:16;4.80;71.70
12233;DHT22;6179;51.748;8.728;2023-02-28T11:56:41;4.20;73.10
12233;DHT22;6179;51.748;8.728;2023-02-28T12:15:54;5.30;72.40
12233;DHT22;6179;51.748;8.728;2023-02-28T12:22:26;5.50;69.30
12233;DHT22;6179;51.748;8.728;2023-02-28T12:28:35;5.50;70.00
12233;DHT22;6179;51.748;8.728;2023-02-28T12:34:46;5.20;71.80
12233;DHT22;6179;51.748;8.728;2023-02-28T12:40:56;5.10;71.40
12233;DHT22;6179;51.748;8.728;2023-02-28T12:47:04;5.30;71.30
12233;DHT22;6179;51.748;8.728;2023-02-28T12:53:26;5.10;71.80
12233;DHT22;6179;51.748;8.728;2023-02-28T12:59:50;5.40;70.40
12233;DHT22;6179;51.748;8.728;2023-02-28T13:12:34;5.00;71.70
12233;DHT22;6179;51.748;8.728;2023-02-28T13:18:45;5.20;71.50
12233;DHT22;6179;51.748;8.728;2023-02-28T13:31:03;5.90;67.80
12233;DHT22;6179;51.748;8.728;2023-02-28T13:50:22;5.80;68.60
12233;DHT22;6179;51.748;8.728;2023-02-28T14:09:28;5.90;66.90
12233;DHT22;6179;51.748;8.728;2023-02-28T14:21:36;5.60;68.00
12233;DHT22;6179;51.748;8.728;2023-02-28T14:28:06;5.90;66.60
12233;DHT22;6179;51.748;8.728;2023-02-28T14:40:35;6.10;65.20
12233;DHT22;6179;51.748;8.728;2023-02-28T14:46:40;6.00;66.60
12233;DHT22;6179;51.748;8.728;2023-02-28T14:52:43;5.80;68.10
12233;DHT22;6179;51.748;8.728;2023-02-28T14:58:52;6.10;68.70
12233;DHT22;6179;51.748;8.728;2023-02-28T15:05:01;6.00;67.60
12233;DHT22;6179;51.748;8.728;2023-02-28T15:11:25;5.80;69.10
12233;DHT22;6179;51.748;8.728;2023-02-28T15:17:25;5.60;67.20
12233;DHT22;6179;51.748;8.728;2023-02-28T15:23:27;5.60;67.70
12233;DHT22;6179;51.748;8.728;2023-02-28T15:29:32;5.40;69.10
12233;DHT22;6179;51.748;8.728;2023-02-28T15:35:42;5.70;68.10
12233;DHT22;6179;51.748;8.728;2023-02-28T15:41:44;5.80;66.70
12233;DHT22;6179;51.748;8.728;2023-02-28T15:47:46;5.70;68.40
12233;DHT22;6179;51.748;8.728;2023-02-28T15:54:08;5.60;68.30
12233;DHT22;6179;51.748;8.728;2023-02-28T16:00:24;5.60;68.40
12233;DHT22;6179;51.748;8.728;2023-02-28T16:12:42;5.40;67.90
12233;DHT22;6179;51.748;8.728;2023-02-28T16:18:43;5.20;67.20
12233;DHT22;6179;51.748;8.728;2023-02-28T16:24:44;5.10;67.60
12233;DHT22;6179;51.748;8.728;2023-02-28T16:30:45;4.90;68.70
12233;DHT22;6179;51.748;8.728;2023-02-28T16:36:47;4.90;68.80
12233;DHT22;6179;51.748;8.728;2023-02-28T16:42:52;4.80;69.10
12233;DHT22;6179;51.748;8.728;2023-02-28T16:48:55;4.80;69.10
12233;DHT22;6179;51.748;8.728;2023-02-28T16:54:55;4.60;69.50
12233;DHT22;6179;51.748;8.728;2023-02-28T17:00:56;4.80;70.00
12233;DHT22;6179;51.748;8.728;2023-02-28T17:06:57;4.50;71.00
12233;DHT22;6179;51.748;8.728;2023-02-28T17:12:58;4.30;71.80
12233;DHT22;6179;51.748;8.728;2023-02-28T17:19:04;3.90;73.10
12233;DHT22;6179;51.748;8.728;2023-02-28T17:25:07;4.00;73.60
12233;DHT22;6179;51.748;8.728;2023-02-28T17:31:09;3.70;74.70
12233;DHT22;6179;51.748;8.728;2023-02-28T17:37:10;3.60;75.20
12233;DHT22;6179;51.748;8.728;2023-02-28T17:43:12;3.50;75.20
12233;DHT22;6179;51.748;8.728;2023-02-28T17:49:13;3.20;75.30
12233;DHT22;6179;51.748;8.728;2023-02-28T17:55:14;3.20;75.70
12233;DHT22;6179;51.748;8.728;2023-02-28T18:01:15;2.90;76.30
12233;DHT22;6179;51.748;8.728;2023-02-28T18:07:16;2.60;77.10
12233;DHT22;6179;51.748;8.728;2023-02-28T18:13:18;2.50;77.80
12233;DHT22;6179;51.748;8.728;2023-02-28T18:19:19;2.30;78.40
12233;DHT22;6179;51.748;8.728;2023-02-28T18:25:20;2.20;78.60
12233;DHT22;6179;51.748;8.728;2023-02-28T18:31:22;2.30;78.60
12233;DHT22;6179;51.748;8.728;2023-02-28T18:37:23;1.90;79.90
12233;DHT22;6179;51.748;8.728;2023-02-28T18:43:25;1.80;80.30
12233;DHT22;6179;51.748;8.728;2023-02-28T18:49:26;1.60;80.90
12233;DHT22;6179;51.748;8.728;2023-02-28T18:55:27;1.30;82.30
12233;DHT22;6179;51.748;8.728;2023-02-28T19:01:28;1.20;82.70
12233;DHT22;6179;51.748;8.728;2023-02-28T19:07:31;1.20;82.90
12233;DHT22;6179;51.748;8.728;2023-02-28T19:13:33;1.10;83.10
12233;DHT22;6179;51.748;8.728;2023-02-28T19:19:34;1.30;82.80
12233;DHT22;6179;51.748;8.728;2023-02-28T19:25:39;1.00;83.90
12233;DHT22;6179;51.748;8.728;2023-02-28T19:31:41;1.00;84.10
12233;DHT22;6179;51.748;8.728;2023-02-28T19:37:42;1.10;84.00
12233;DHT22;6179;51.748;8.728;2023-02-28T19:43:43;1.10;84.10
12233;DHT22;6179;51.748;8.728;2023-02-28T19:49:45;1.10;83.90
12233;DHT22;6179;51.748;8.728;2023-02-28T19:55:45;0.70;84.80
12233;DHT22;6179;51.748;8.728;2023-02-28T20:01:47;0.50;86.10
12233;DHT22;6179;51.748;8.728;2023-02-28T20:07:48;0.80;85.40
12233;DHT22;6179;51.748;8.728;2023-02-28T20:13:51;0.60;86.00
12233;DHT22;6179;51.748;8.728;2023-02-28T20:19:53;0.50;86.60
12233;DHT22;6179;51.748;8.728;2023-02-28T20:25:58;0.80;85.60
12233;DHT22;6179;51.748;8.728;2023-02-28T20:32:00;0.60;85.50
12233;DHT22;6179;51.748;8.728;2023-02-28T20:38:01;0.30;86.70
12233;DHT22;6179;51.748;8.728;2023-02-28T20:44:02;0.00;88.10
12233;DHT22;6179;51.748;8.728;2023-02-28T20:50:02;0.10;88.20
12233;DHT22;6179;51.748;8.728;2023-02-28T20:56:15;0.00;88.30
12233;DHT22;6179;51.748;8.728;2023-02-28T21:02:18;-0.10;89.50
12233;DHT22;6179;51.748;8.728;2023-02-28T21:08:20;-0.10;89.20
12233;DHT22;6179;51.748;8.728;2023-02-28T21:14:21;-0.10;89.20
12233;DHT22;6179;51.748;8.728;2023-02-28T21:20:24;0.00;88.70
12233;DHT22;6179;51.748;8.728;2023-02-28T21:26:25;0.40;87.50
12233;DHT22;6179;51.748;8.728;2023-02-28T21:32:26;0.40;87.80
12233;DHT22;6179;51.748;8.728;2023-02-28T21:38:27;0.70;88.00
12233;DHT22;6179;51.748;8.728;2023-02-28T21:44:29;0.60;88.00
12233;DHT22;6179;51.748;8.728;2023-02-28T21:50:31;0.50;88.40
12233;DHT22;6179;51.748;8.728;2023-02-28T21:56:33;0.00;89.20
12233;DHT22;6179;51.748;8.728;2023-02-28T22:02:35;-0.10;90.40
12233;DHT22;6179;51.748;8.728;2023-02-28T22:08:36;-0.10;90.00
12233;DHT22;6179;51.748;8.728;2023-02-28T22:14:38;-0.20;90.50
12233;DHT22;6179;51.748;8.728;2023-02-28T22:20:39;-0.50;91.50
12233;DHT22;6179;51.748;8.728;2023-02-28T22:26:40;-0.30;91.40
12233;DHT22;6179;51.748;8.728;2023-02-28T22:32:41;-0.20;91.40
12233;DHT22;6179;51.748;8.728;2023-02-28T22:38:43;-0.30;92.20
12233;DHT22;6179;51.748;8.728;2023-02-28T22:44:45;0.10;91.30
12233;DHT22;6179;51.748;8.728;2023-02-28T22:50:46;-0.10;91.90
12233;DHT22;6179;51.748;8.728;2023-02-28T22:56:46;-0.20;91.80
12233;DHT22;6179;51.748;8.728;2023-02-28T23:02:47;-0.70;92.90
12233;DHT22;6179;51.748;8.728;2023-02-28T23:08:50;-0.70;93.10
12233;DHT22;6179;51.748;8.728;2023-02-28T23:14:52;-0.80;93.20
12233;DHT22;6179;51.748;8.728;2023-02-28T23:20:55;-1.00;93.40
12233;DHT22;6179;51.748;8.728;2023-02-28T23:26:59;-1.20;93.70
12233;DHT22;6179;51.748;8.728;2023-02-28T23:33:01;-1.20;94.00
12233;DHT22;6179;51.748;8.728;2023-02-28T23:39:02;-1.40;94.40
12233;DHT22;6179;51.748;8.728;2023-02-28T23:45:03;-0.70;93.60
12233;DHT22;6179;51.748;8.728;2023-02-28T23:51:11;-0.60;93.20
12233;DHT22;6179;51.748;8.728;2023-02-28T23:57:16;-1.00;93.60
